TimeEST,TemperatureF,Dew PointF,Humidity,Sea Level PressureIn,VisibilityMPH,Wind Direction,Wind SpeedMPH,Gust SpeedMPH,PrecipitationIn,Events,Conditions,WindDirDegrees,DateUTC
12:54 AM,23.0,5.0,46,30.21,10.0,NW,18.4,24.2,N/A,,Clear,320,2013-02-18 05:54:00
1:54 AM,23.0,5.0,46,30.22,10.0,WNW,11.5,-,N/A,,Clear,290,2013-02-18 06:54:00
2:54 AM,21.0,6.1,53,30.23,10.0,WNW,9.2,-,N/A,,Clear,290,2013-02-18 07:54:00
3:54 AM,21.0,6.1,53,30.25,10.0,West,9.2,-,N/A,,Clear,280,2013-02-18 08:54:00
4:54 AM,19.9,6.1,55,30.27,10.0,West,6.9,-,N/A,,Clear,270,2013-02-18 09:54:00
5:54 AM,19.9,5.0,52,30.30,10.0,West,10.4,-,N/A,,Clear,270,2013-02-18 10:54:00
6:54 AM,19.9,6.1,55,30.33,10.0,West,6.9,-,N/A,,Clear,280,2013-02-18 11:54:00
7:54 AM,23.0,6.1,48,30.36,10.0,West,9.2,-,N/A,,Clear,270,2013-02-18 12:54:00
8:54 AM,25.0,6.1,45,30.37,10.0,West,10.4,-,N/A,,Clear,280,2013-02-18 13:54:00
9:54 AM,27.0,6.1,41,30.37,10.0,West,15.0,-,N/A,,Partly Cloudy,280,2013-02-18 14:54:00
10:54 AM,30.9,7.0,37,30.36,10.0,Variable,5.8,-,N/A,,Partly Cloudy,0,2013-02-18 15:54:00
11:54 AM,32.0,6.1,34,30.34,10.0,WNW,4.6,-,N/A,,Partly Cloudy,300,2013-02-18 16:54:00
12:54 PM,34.0,7.0,32,30.31,10.0,WSW,8.1,-,N/A,,Partly Cloudy,250,2013-02-18 17:54:00
1:54 PM,37.0,7.0,29,30.28,10.0,West,8.1,-,N/A,,Partly Cloudy,270,2013-02-18 18:54:00
2:54 PM,39.0,7.0,27,30.25,10.0,WSW,8.1,-,N/A,,Partly Cloudy,250,2013-02-18 19:54:00
3:54 PM,39.9,5.0,23,30.25,10.0,SSW,8.1,-,N/A,,Partly Cloudy,210,2013-02-18 20:54:00
4:54 PM,39.9,5.0,23,30.24,10.0,SSW,6.9,-,N/A,,Partly Cloudy,210,2013-02-18 21:54:00
5:54 PM,37.0,8.1,30,30.25,10.0,SSW,3.5,-,N/A,,Scattered Clouds,200,2013-02-18 22:54:00
6:54 PM,34.0,8.1,34,30.25,10.0,SE,4.6,-,N/A,,Scattered Clouds,130,2013-02-18 23:54:00
7:54 PM,34.0,10.9,38,30.24,10.0,Calm,Calm,-,N/A,,Mostly Cloudy,0,2013-02-19 00:54:00
8:54 PM,33.1,12.9,43,30.22,10.0,SSE,3.5,-,N/A,,Mostly Cloudy,150,2013-02-19 01:54:00
9:54 PM,33.1,19.0,56,30.21,10.0,Calm,Calm,-,N/A,,Mostly Cloudy,0,2013-02-19 02:54:00
10:54 PM,30.0,19.9,66,30.19,10.0,Calm,Calm,-,N/A,,Mostly Cloudy,0,2013-02-19 03:54:00
11:54 PM,30.9,21.0,67,30.17,10.0,Calm,Calm,-,N/A,,Mostly Cloudy,0,2013-02-19 04:54:00